Saint-Jerome, Canada
Current Conditions -  °F | °C
As of 1:00 AM on Thursday 27 Nov 2014 (Local Time) from CYMX Reporting Station
Overcast Overcast  
Wind Chill: 30°   Ceiling: 10000
Heat Index: 30°   Visibility: 25mi
Dew Point: 18°   Wind: 3mph
Humidity: 60%   Direction: 20°NNE
Pressure: 30.02"   Gusts: NA
Location:  45.77°N, 74°W
Report Text: CYMX 270600Z 02003KT 330V130 25SM OVC100 M01/M08 A3002 RMK AS8 SLP170
Loading
Personal Weather Stations






























Interactive Weather Map New forecast layout! Learn more

10-Day Weather Forecast

Advertisements
Track Severe Weather on mobile